Time,TemperatureF,DewpointF,PressureIn,WindDirection,WindDirectionDegrees,WindSpeedMPH,WindSpeedGustMPH,Humidity,HourlyPrecipIn,Conditions,Clouds,dailyrainin,SoftwareType,DateUTC
2013-08-23 00:01:00,53.0,25.0,-100.00,North,-999,-999.0,-999.0,33,-99.99,,,-99.99,,2013-08-23 07:01:00,
2013-08-23 00:12:00,53.0,25.0,-100.00,North,-999,-999.0,-999.0,33,-99.99,,,-99.99,,2013-08-23 07:12:00,
2013-08-23 00:42:00,51.0,24.0,-100.00,North,-999,-999.0,-999.0,35,-99.99,,,-99.99,,2013-08-23 07:42:00,
2013-08-23 00:52:00,50.0,24.0,-100.00,North,-999,-999.0,-999.0,36,-99.99,,,-99.99,,2013-08-23 07:52:00,
2013-08-23 01:02:00,50.0,24.0,-100.00,North,-999,-999.0,-999.0,36,-99.99,,,-99.99,,2013-08-23 08:02:00,
2013-08-23 01:12:00,50.0,24.0,-100.00,North,-999,-999.0,-999.0,36,-99.99,,,-99.99,,2013-08-23 08:12:00,
2013-08-23 01:42:00,49.0,24.0,-100.00,North,-999,-999.0,-999.0,37,-99.99,,,0.00,,2013-08-23 08:42:00,
2013-08-23 01:52:00,48.0,24.0,-100.00,North,-999,-999.0,-999.0,38,-99.99,,,-99.99,,2013-08-23 08:52:00,
2013-08-23 02:01:00,48.0,24.0,-100.00,North,-999,-999.0,-999.0,38,-99.99,,,-99.99,,2013-08-23 09:01:00,
2013-08-23 02:12:00,48.0,24.0,-100.00,North,-999,-999.0,-999.0,38,-99.99,,,-99.99,,2013-08-23 09:12:00,
2013-08-23 02:32:00,47.0,23.0,-100.00,North,-999,-999.0,-999.0,39,-99.99,,,-99.99,,2013-08-23 09:32:00,
2013-08-23 02:43:00,47.0,23.0,-100.00,North,-999,-999.0,-999.0,38,-99.99,,,-99.99,,2013-08-23 09:43:00,
2013-08-23 02:53:00,47.0,23.0,-100.00,North,-999,-999.0,-999.0,39,-99.99,,,-99.99,,2013-08-23 09:53:00,
2013-08-23 03:03:00,47.0,23.0,-100.00,North,-999,-999.0,-999.0,39,-99.99,,,-99.99,,2013-08-23 10:03:00,
2013-08-23 03:13:00,47.0,23.0,-100.00,North,-999,-999.0,-999.0,39,-99.99,,,-99.99,,2013-08-23 10:13:00,
2013-08-23 03:22:00,47.0,23.0,-100.00,North,-999,-999.0,-999.0,39,-99.99,,,-99.99,,2013-08-23 10:22:00,
2013-08-23 03:53:00,46.0,22.0,-100.00,North,-999,-999.0,-999.0,39,-99.99,,,-99.99,,2013-08-23 10:53:00,
2013-08-23 04:02:00,46.0,22.0,-100.00,North,-999,-999.0,-999.0,39,-99.99,,,-99.99,,2013-08-23 11:02:00,
2013-08-23 04:11:00,46.0,22.0,-100.00,North,-999,-999.0,-999.0,39,-99.99,,,-99.99,,2013-08-23 11:11:00,
2013-08-23 04:42:00,45.0,22.0,-100.00,North,-999,-999.0,-999.0,39,-99.99,,,-99.99,,2013-08-23 11:42:00,
2013-08-23 05:11:00,45.0,23.0,-100.00,North,-999,-999.0,-999.0,41,-99.99,,,-99.99,,2013-08-23 12:11:00,
2013-08-23 05:42:00,43.0,22.0,-100.00,North,-999,-999.0,-999.0,42,-99.99,,,-99.99,,2013-08-23 12:42:00,
2013-08-23 06:11:00,43.0,20.0,-100.00,North,-999,-999.0,-999.0,40,-99.99,,,-99.99,,2013-08-23 13:11:00,
2013-08-23 06:42:00,42.0,21.0,-100.00,North,-999,-999.0,-999.0,43,-99.99,,,-99.99,,2013-08-23 13:42:00,
2013-08-23 06:52:00,42.0,21.0,-100.00,North,-999,-999.0,-999.0,42,-99.99,,,-99.99,,2013-08-23 13:52:00,
2013-08-23 07:02:00,42.0,21.0,-100.00,North,-999,-999.0,-999.0,42,-99.99,,,-99.99,,2013-08-23 14:02:00,
2013-08-23 07:12:00,42.0,21.0,-100.00,North,-999,-999.0,-999.0,42,-99.99,,,-99.99,,2013-08-23 14:12:00,
2013-08-23 07:42:00,42.0,21.0,-100.00,North,-999,-999.0,-999.0,42,-99.99,,,-99.99,,2013-08-23 14:42:00,
2013-08-23 07:52:00,45.0,23.0,-100.00,North,-999,-999.0,-999.0,41,-99.99,,,-99.99,,2013-08-23 14:52:00,
2013-08-23 08:01:00,45.0,23.0,-100.00,North,-999,-999.0,-999.0,41,-99.99,,,-99.99,,2013-08-23 15:01:00,
2013-08-23 08:11:00,45.0,23.0,-100.00,North,-999,-999.0,-999.0,41,-99.99,,,-99.99,,2013-08-23 15:11:00,
2013-08-23 08:44:00,59.0,25.0,-100.00,North,-999,-999.0,-999.0,27,-99.99,,,-99.99,,2013-08-23 15:44:00,
2013-08-23 08:54:00,70.0,27.0,-100.00,North,-999,-999.0,-999.0,20,-99.99,,,-99.99,,2013-08-23 15:54:00,
2013-08-23 09:05:00,70.0,27.0,-100.00,North,-999,-999.0,-999.0,20,-99.99,,,-99.99,,2013-08-23 16:05:00,
2013-08-23 09:13:00,70.0,27.0,-100.00,North,-999,-999.0,-999.0,20,-99.99,,,-99.99,,2013-08-23 16:13:00,
2013-08-23 09:42:00,79.0,29.0,-100.00,North,-999,-999.0,-999.0,16,-99.99,,,-99.99,,2013-08-23 16:42:00,
2013-08-23 09:53:00,87.0,30.0,-100.00,North,-999,-999.0,-999.0,13,-99.99,,,-99.99,,2013-08-23 16:53:00,
2013-08-23 10:03:00,87.0,30.0,-100.00,North,-999,-999.0,-999.0,13,-99.99,,,-99.99,,2013-08-23 17:03:00,
2013-08-23 10:13:00,87.0,30.0,-100.00,North,-999,-999.0,-999.0,13,-99.99,,,-99.99,,2013-08-23 17:13:00,
2013-08-23 10:23:00,87.0,26.0,-100.00,North,-999,-999.0,-999.0,11,-99.99,,,-99.99,,2013-08-23 17:23:00,
2013-08-23 10:33:00,87.0,26.0,-100.00,North,-999,-999.0,-999.0,11,-99.99,,,-99.99,,2013-08-23 17:33:00,
2013-08-23 10:43:00,87.0,26.0,-100.00,North,-999,-999.0,-999.0,11,-99.99,,,-99.99,,2013-08-23 17:43:00,
2013-08-23 10:53:00,91.0,29.0,-100.00,North,-999,-999.0,-999.0,11,-99.99,,,-99.99,,2013-08-23 17:53:00,
2013-08-23 11:02:00,91.0,29.0,-100.00,North,-999,-999.0,-999.0,11,-99.99,,,-99.99,,2013-08-23 18:02:00,
2013-08-23 11:12:00,91.0,29.0,-100.00,North,-999,-999.0,-999.0,11,-99.99,,,-99.99,,2013-08-23 18:12:00,
2013-08-23 11:42:00,89.0,30.0,-100.00,North,-999,-999.0,-999.0,12,-99.99,,,-99.99,,2013-08-23 18:42:00,
2013-08-23 11:52:00,88.0,31.0,-100.00,North,-999,-999.0,-999.0,13,-99.99,,,-99.99,,2013-08-23 18:52:00,
2013-08-23 12:01:00,88.0,31.0,-100.00,North,-999,-999.0,-999.0,13,-99.99,,,-99.99,,2013-08-23 19:01:00,
2013-08-23 12:11:00,88.0,31.0,-100.00,North,-999,-999.0,-999.0,13,-99.99,,,-99.99,,2013-08-23 19:11:00,
2013-08-23 12:22:00,88.0,36.0,-100.00,North,-999,-999.0,-999.0,16,-99.99,,,-99.99,,2013-08-23 19:22:00,
2013-08-23 12:31:00,88.0,36.0,-100.00,North,-999,-999.0,-999.0,16,-99.99,,,-99.99,,2013-08-23 19:31:00,
2013-08-23 12:42:00,88.0,36.0,-100.00,North,-999,-999.0,-999.0,16,-99.99,,,-99.99,,2013-08-23 19:42:00,
2013-08-23 12:52:00,89.0,35.0,-100.00,North,-999,-999.0,-999.0,15,-99.99,,,-99.99,,2013-08-23 19:52:00,
2013-08-23 13:01:00,89.0,35.0,-100.00,North,-999,-999.0,-999.0,15,-99.99,,,-99.99,,2013-08-23 20:01:00,
2013-08-23 13:12:00,89.0,35.0,-100.00,North,-999,-999.0,-999.0,15,-99.99,,,-99.99,,2013-08-23 20:12:00,
2013-08-23 13:42:00,89.0,37.0,-100.00,North,-999,-999.0,-999.0,16,-99.99,,,0.00,,2013-08-23 20:42:00,
2013-08-23 13:52:00,90.0,38.0,-100.00,North,-999,-999.0,-999.0,16,-99.99,,,-99.99,,2013-08-23 20:52:00,
2013-08-23 14:02:00,90.0,38.0,-100.00,North,-999,-999.0,-999.0,16,-99.99,,,-99.99,,2013-08-23 21:02:00,
2013-08-23 14:11:00,90.0,38.0,-100.00,North,-999,-999.0,-999.0,16,-99.99,,,-99.99,,2013-08-23 21:11:00,
2013-08-23 15:13:00,89.0,40.0,-100.00,North,-999,-999.0,-999.0,18,-99.99,,,-99.99,,2013-08-23 22:13:00,
2013-08-23 15:43:00,89.0,40.0,-100.00,North,-999,-999.0,-999.0,18,-99.99,,,-99.99,,2013-08-23 22:43:00,
2013-08-23 15:53:00,88.0,38.0,-100.00,North,-999,-999.0,-999.0,17,-99.99,,,-99.99,,2013-08-23 22:53:00,
2013-08-23 16:03:00,88.0,38.0,-100.00,North,-999,-999.0,-999.0,17,-99.99,,,-99.99,,2013-08-23 23:03:00,
2013-08-23 16:12:00,88.0,38.0,-100.00,North,-999,-999.0,-999.0,17,-99.99,,,-99.99,,2013-08-23 23:12:00,
2013-08-23 16:43:00,90.0,39.0,-100.00,North,-999,-999.0,-999.0,17,-99.99,,,-99.99,,2013-08-23 23:43:00,
2013-08-23 17:11:00,88.0,41.0,-100.00,North,-999,-999.0,-999.0,19,-99.99,,,-99.99,,2013-08-24 00:11:00,
2013-08-23 17:21:00,86.0,41.0,-100.00,North,-999,-999.0,-999.0,21,-99.99,,,-99.99,,2013-08-24 00:21:00,
2013-08-23 17:32:00,86.0,41.0,-100.00,North,-999,-999.0,-999.0,21,-99.99,,,-99.99,,2013-08-24 00:32:00,
2013-08-23 17:43:00,86.0,41.0,-100.00,North,-999,-999.0,-999.0,21,-99.99,,,-99.99,,2013-08-24 00:43:00,
2013-08-23 18:11:00,85.0,43.0,-100.00,North,-999,-999.0,-999.0,23,-99.99,,,-99.99,,2013-08-24 01:11:00,
2013-08-23 18:42:00,84.0,41.0,-100.00,North,-999,-999.0,-999.0,22,-99.99,,,-99.99,,2013-08-24 01:42:00,
2013-08-23 19:42:00,80.0,43.0,-100.00,North,-999,-999.0,-999.0,27,-99.99,,,-99.99,,2013-08-24 02:42:00,
2013-08-23 19:52:00,76.0,41.0,-100.00,North,-999,-999.0,-999.0,29,-99.99,,,-99.99,,2013-08-24 02:52:00,
2013-08-23 20:02:00,76.0,41.0,-100.00,North,-999,-999.0,-999.0,29,-99.99,,,-99.99,,2013-08-24 03:02:00,
2013-08-23 20:12:00,76.0,41.0,-100.00,North,-999,-999.0,-999.0,29,-99.99,,,-99.99,,2013-08-24 03:12:00,
2013-08-23 20:54:00,66.0,37.0,-100.00,North,-999,-999.0,-999.0,34,-99.99,,,-99.99,,2013-08-24 03:54:00,
2013-08-23 21:04:00,66.0,37.0,-100.00,North,-999,-999.0,-999.0,34,-99.99,,,-99.99,,2013-08-24 04:04:00,
2013-08-23 21:14:00,66.0,37.0,-100.00,North,-999,-999.0,-999.0,34,-99.99,,,-99.99,,2013-08-24 04:14:00,
2013-08-23 21:53:00,61.0,36.0,-100.00,North,-999,-999.0,-999.0,39,-99.99,,,-99.99,,2013-08-24 04:53:00,
2013-08-23 22:03:00,61.0,36.0,-100.00,North,-999,-999.0,-999.0,39,-99.99,,,-99.99,,2013-08-24 05:03:00,
2013-08-23 22:13:00,61.0,36.0,-100.00,North,-999,-999.0,-999.0,39,-99.99,,,-99.99,,2013-08-24 05:13:00,
2013-08-23 22:43:00,59.0,35.0,-100.00,North,-999,-999.0,-999.0,40,-99.99,,,-99.99,,2013-08-24 05:43:00,
2013-08-23 23:12:00,57.0,34.0,-100.00,North,-999,-999.0,-999.0,41,-99.99,,,-99.99,,2013-08-24 06:12:00,